SBPV/PVH METAR and TAF weather

Enter ICAO airport designator
Station Type Date Time Source
SBPV METAR 2019/02/22 22:00 UTC NOAA

SBPV 222200Z 04001KT 9999 SCT020 26/23 Q1008


Station Type Date Time Source
SBPV Decoded METAR 2019/02/22 22:00 UTC NOAA

Porto Velho Aeroporto , Brazil (SBPV) 08-46S 063-55W 102M
Feb 22, 2019 - 05:00 PM EST / 2019.02.22 2200 UTC
Wind: from the NE (040 degrees) at 1 MPH (1 KT):0
Visibility: greater than 7 mile(s):0
Sky conditions: partly cloudy
Temperature: 78 F (26 C)
Dew Point: 73 F (23 C)
Relative Humidity: 83%
Pressure (altimeter): 29.77 in. Hg (1008 hPa)
ob: SBPV 222200Z 04001KT 9999 SCT020 26/23 Q1008
cycle: 22

Station Type Date Time Source
SBPV TAF 2019/02/22 18:39 UTC NOAA

TAF SBPV 221600Z 2218/2318 15005KT 9999 SCT017 FEW030TCU TN23/2307Z T X30/2317Z
BECMG 2219/2221 12005KT
BECMG 2223/2301 00000KT FEW025
BECMG 2313/23 15
BECMG 2304/2306 02005KT 5000 TSRA SCT010 FEW025CB
BECMG 2308/2310 10 005KT 8000 BKN006 FEW030TCU
BECMG 2312/2314 02005KT 9999 SCT005
BECMG 2316 /2317 SCT030 FEW035TCU
RMK PDY


Example: see airport list